createdAt,value
2023-02-28T00:00:38.171Z,8.90
2023-02-28T00:03:04.493Z,8.20
2023-02-28T00:05:30.681Z,9.60
2023-02-28T00:07:56.952Z,10.10
2023-02-28T00:10:26.853Z,9.90
2023-02-28T00:12:57.084Z,9.90
2023-02-28T00:15:24.010Z,8.40
2023-02-28T00:17:50.611Z,8.90
2023-02-28T00:20:17.702Z,9.00
2023-02-28T00:22:46.557Z,8.40
2023-02-28T00:25:15.127Z,9.50
2023-02-28T00:27:41.823Z,8.20
2023-02-28T00:30:11.381Z,8.50
2023-02-28T00:32:37.709Z,7.10
2023-02-28T00:35:05.012Z,7.10
2023-02-28T00:37:31.413Z,8.70
2023-02-28T00:39:57.672Z,8.40
2023-02-28T00:42:24.621Z,9.40
2023-02-28T00:44:51.153Z,8.10
2023-02-28T00:47:17.483Z,9.70
2023-02-28T00:49:43.874Z,10.80
2023-02-28T00:52:10.390Z,11.20
2023-02-28T00:54:36.613Z,13.90
2023-02-28T00:57:02.946Z,14.00
2023-02-28T00:59:29.113Z,13.20
2023-02-28T01:01:55.271Z,12.50
2023-02-28T01:04:21.835Z,12.40
2023-02-28T01:06:48.141Z,15.00
2023-02-28T01:09:14.412Z,14.10
2023-02-28T01:11:44.256Z,14.60
2023-02-28T01:14:15.246Z,14.50
2023-02-28T01:16:41.571Z,12.30
2023-02-28T01:19:07.854Z,13.20
2023-02-28T01:21:35.260Z,13.50
2023-02-28T01:24:02.203Z,12.90
2023-02-28T01:26:28.358Z,13.60
2023-02-28T01:28:54.607Z,14.20
2023-02-28T01:31:21.959Z,14.80
2023-02-28T01:33:48.807Z,14.40
2023-02-28T01:36:18.281Z,16.00
2023-02-28T01:38:45.188Z,16.40
2023-02-28T01:41:20.050Z,16.40
2023-02-28T01:43:46.100Z,17.20
2023-02-28T01:46:13.272Z,16.80
2023-02-28T01:48:47.706Z,17.40
2023-02-28T01:51:37.702Z,16.80
2023-02-28T01:54:13.859Z,16.70
2023-02-28T01:56:46.739Z,15.50
2023-02-28T01:59:30.095Z,14.20
2023-02-28T02:01:56.451Z,14.30
2023-02-28T02:04:26.460Z,14.40
2023-02-28T02:06:52.665Z,15.10
2023-02-28T02:09:18.730Z,15.50
2023-02-28T02:11:46.021Z,16.10
2023-02-28T02:14:31.203Z,15.40
2023-02-28T02:17:05.974Z,14.90
2023-02-28T02:20:03.498Z,15.10
2023-02-28T02:22:53.004Z,17.00
2023-02-28T02:25:35.493Z,16.60
2023-02-28T02:30:51.977Z,16.00
2023-02-28T02:33:37.630Z,14.80
2023-02-28T02:36:13.702Z,16.40
2023-02-28T02:39:00.896Z,16.20
2023-02-28T02:41:37.051Z,15.50
2023-02-28T02:44:15.774Z,16.70
2023-02-28T02:46:45.208Z,18.10
2023-02-28T02:49:26.560Z,15.90
2023-02-28T02:51:55.552Z,16.80
2023-02-28T02:54:28.941Z,18.10
2023-02-28T02:56:59.516Z,17.60
2023-02-28T02:59:28.627Z,18.80
2023-02-28T03:02:07.909Z,18.60
2023-02-28T03:04:44.001Z,18.30
2023-02-28T03:07:10.133Z,17.80
2023-02-28T03:09:37.251Z,18.00
2023-02-28T03:12:12.198Z,16.90
2023-02-28T03:14:59.753Z,16.20
2023-02-28T03:17:44.234Z,15.20
2023-02-28T03:20:25.497Z,16.30
2023-02-28T03:23:19.536Z,17.30
2023-02-28T03:26:04.669Z,19.00
2023-02-28T03:28:36.957Z,19.20
2023-02-28T03:33:56.644Z,16.90
2023-02-28T03:36:44.032Z,18.30
2023-02-28T03:39:48.423Z,19.00
2023-02-28T03:42:27.920Z,19.10
2023-02-28T03:45:01.176Z,20.60
2023-02-28T03:47:36.069Z,19.40
2023-02-28T03:50:15.326Z,19.20
2023-02-28T03:53:00.458Z,18.50
2023-02-28T03:55:31.205Z,16.30
2023-02-28T03:58:16.134Z,18.60
2023-02-28T04:00:48.516Z,17.10
2023-02-28T04:05:53.935Z,18.80
2023-02-28T04:08:20.609Z,16.60
2023-02-28T04:10:55.321Z,15.50
2023-02-28T04:13:21.429Z,16.70
2023-02-28T04:15:47.526Z,16.50
2023-02-28T04:18:13.631Z,16.80
2023-02-28T04:20:39.706Z,15.40
2023-02-28T04:23:05.881Z,14.10
2023-02-28T04:25:31.982Z,14.40
2023-02-28T04:27:58.066Z,15.90
2023-02-28T04:30:24.146Z,14.80
2023-02-28T04:32:50.378Z,16.00
2023-02-28T04:35:16.605Z,15.00
2023-02-28T04:37:42.777Z,17.20
2023-02-28T04:40:09.514Z,15.00
2023-02-28T04:42:36.198Z,14.80
2023-02-28T04:45:03.766Z,15.80
2023-02-28T04:47:29.915Z,16.80
2023-02-28T04:49:56.013Z,15.30
2023-02-28T04:52:22.160Z,20.00
2023-02-28T04:54:48.369Z,18.80
2023-02-28T04:57:14.590Z,20.20
2023-02-28T04:59:40.729Z,25.20
2023-02-28T05:02:07.205Z,25.70
2023-02-28T05:04:34.505Z,33.00
2023-02-28T05:07:01.672Z,35.70
2023-02-28T05:09:28.860Z,33.80
2023-02-28T05:11:55.678Z,34.40
2023-02-28T05:14:22.129Z,31.90
2023-02-28T05:16:48.185Z,27.90
2023-02-28T05:19:14.504Z,24.90
2023-02-28T05:21:42.334Z,27.30
2023-02-28T05:24:12.558Z,31.80
2023-02-28T05:26:40.847Z,31.90
2023-02-28T05:29:07.020Z,32.70
2023-02-28T05:31:33.789Z,31.50
2023-02-28T05:34:00.002Z,30.40
2023-02-28T05:36:26.144Z,29.60
2023-02-28T05:38:52.736Z,31.90
2023-02-28T05:41:20.337Z,28.50
2023-02-28T05:43:47.190Z,29.40
2023-02-28T05:46:14.141Z,30.50
2023-02-28T05:48:42.318Z,29.50
2023-02-28T05:51:09.688Z,28.40
2023-02-28T05:53:35.834Z,27.20
2023-02-28T05:56:01.996Z,28.20
2023-02-28T05:58:31.013Z,28.80
2023-02-28T06:01:01.687Z,27.00
2023-02-28T06:03:28.088Z,29.30
2023-02-28T06:05:54.275Z,28.60
2023-02-28T06:08:20.496Z,28.40
2023-02-28T06:10:46.731Z,25.90
2023-02-28T06:13:13.213Z,25.60
2023-02-28T06:15:39.686Z,25.10
2023-02-28T06:18:05.991Z,23.60
2023-02-28T06:20:32.165Z,25.40
2023-02-28T06:22:59.040Z,23.90
2023-02-28T06:25:26.898Z,24.80
2023-02-28T06:27:53.039Z,25.60
2023-02-28T06:30:27.125Z,24.60
2023-02-28T06:32:54.757Z,23.50
2023-02-28T06:35:20.966Z,23.80
2023-02-28T06:37:47.528Z,26.00
2023-02-28T06:40:14.281Z,24.40
2023-02-28T06:42:40.549Z,25.10
2023-02-28T06:45:09.477Z,25.20
2023-02-28T06:47:36.995Z,23.20
2023-02-28T06:50:05.067Z,24.50
2023-02-28T06:52:31.164Z,26.10
2023-02-28T06:55:03.470Z,27.00
2023-02-28T07:00:01.149Z,24.10
2023-02-28T07:02:28.228Z,26.90
2023-02-28T07:04:54.480Z,27.40
2023-02-28T07:07:20.854Z,28.20
2023-02-28T07:09:47.079Z,29.60
2023-02-28T07:12:13.220Z,30.10
2023-02-28T07:14:39.280Z,28.80
2023-02-28T07:17:07.846Z,28.50
2023-02-28T07:19:34.112Z,29.20
2023-02-28T07:22:01.411Z,26.70
2023-02-28T07:24:28.785Z,26.50
2023-02-28T07:26:55.046Z,26.70
2023-02-28T07:29:21.477Z,27.70
2023-02-28T07:31:47.835Z,25.70
2023-02-28T07:34:14.504Z,25.60
2023-02-28T07:36:40.710Z,27.20
2023-02-28T07:39:06.847Z,26.80
2023-02-28T07:41:34.392Z,25.30
2023-02-28T07:44:00.759Z,25.60
2023-02-28T07:46:29.577Z,26.70
2023-02-28T07:48:59.738Z,24.10
2023-02-28T07:51:25.775Z,26.30
2023-02-28T07:53:51.835Z,25.00
2023-02-28T07:56:18.027Z,25.80
2023-02-28T07:58:44.113Z,27.10
2023-02-28T08:01:11.353Z,23.80
2023-02-28T08:03:40.830Z,23.30
2023-02-28T08:06:15.092Z,22.30
2023-02-28T08:08:41.122Z,23.80
2023-02-28T08:11:07.237Z,23.40
2023-02-28T08:13:33.351Z,21.60
2023-02-28T08:16:02.326Z,23.10
2023-02-28T08:18:28.814Z,23.30
2023-02-28T08:20:58.354Z,24.60
2023-02-28T08:23:24.934Z,24.40
2023-02-28T08:25:57.181Z,27.90
2023-02-28T08:30:55.249Z,24.80
2023-02-28T08:33:21.845Z,25.40
2023-02-28T08:35:47.949Z,24.40
2023-02-28T08:38:14.467Z,24.80
2023-02-28T08:40:41.050Z,22.60
2023-02-28T08:43:07.194Z,21.10
2023-02-28T08:45:34.532Z,21.50
2023-02-28T08:48:00.775Z,23.60
2023-02-28T08:50:26.939Z,21.00
2023-02-28T08:52:53.231Z,23.30
2023-02-28T08:55:19.321Z,21.60
2023-02-28T08:57:45.605Z,24.20
2023-02-28T09:00:13.851Z,22.60
2023-02-28T09:02:43.046Z,22.40
2023-02-28T09:05:09.234Z,24.20
2023-02-28T09:07:35.379Z,24.20
2023-02-28T09:10:01.647Z,23.20
2023-02-28T09:12:32.322Z,26.20
2023-02-28T09:14:58.337Z,26.90
2023-02-28T09:17:24.750Z,26.60
2023-02-28T09:19:57.954Z,28.90
2023-02-28T09:22:24.446Z,29.20
2023-02-28T09:24:50.577Z,33.40
2023-02-28T09:27:16.693Z,30.80
2023-02-28T09:29:42.829Z,29.10
2023-02-28T09:32:08.949Z,30.00
2023-02-28T09:34:37.290Z,31.10
2023-02-28T09:37:03.470Z,28.40
2023-02-28T09:39:29.592Z,27.90
2023-02-28T09:41:56.533Z,27.40
2023-02-28T09:44:35.476Z,29.40
2023-02-28T09:47:11.788Z,30.80
2023-02-28T09:49:42.932Z,27.10
2023-02-28T09:52:14.203Z,28.50
2023-02-28T09:54:40.850Z,28.70
2023-02-28T09:57:11.545Z,31.00
2023-02-28T09:59:59.359Z,26.30
2023-02-28T10:02:53.113Z,25.10
2023-02-28T10:05:30.342Z,25.80
2023-02-28T10:07:57.860Z,26.50
2023-02-28T10:10:51.884Z,24.30
2023-02-28T10:13:30.493Z,21.70
2023-02-28T10:16:02.324Z,14.80
2023-02-28T10:18:37.699Z,11.80
2023-02-28T10:21:04.037Z,10.50
2023-02-28T10:23:36.061Z,11.00
2023-02-28T10:26:16.384Z,11.40
2023-02-28T10:28:43.660Z,9.80
2023-02-28T10:31:19.481Z,9.80
2023-02-28T10:33:46.269Z,10.60
2023-02-28T10:36:17.002Z,10.30
2023-02-28T10:38:45.535Z,10.00
2023-02-28T10:41:26.999Z,10.60
2023-02-28T10:43:53.160Z,8.30
2023-02-28T10:46:25.894Z,10.80
2023-02-28T10:49:03.747Z,7.20
2023-02-28T10:51:37.082Z,10.20
2023-02-28T10:54:04.988Z,9.50
2023-02-28T10:56:32.930Z,9.10
2023-02-28T10:59:24.236Z,9.70
2023-02-28T11:01:53.105Z,10.90
2023-02-28T11:04:29.686Z,9.20
2023-02-28T11:07:01.290Z,11.10
2023-02-28T11:09:35.467Z,9.00
2023-02-28T11:12:05.145Z,10.20
2023-02-28T11:14:48.524Z,9.40
2023-02-28T11:17:27.037Z,9.20
2023-02-28T11:19:56.801Z,11.20
2023-02-28T11:22:28.965Z,10.10
2023-02-28T11:27:32.224Z,11.00
2023-02-28T11:29:59.265Z,9.10
2023-02-28T11:32:30.933Z,7.40
2023-02-28T11:35:23.708Z,9.60
2023-02-28T11:37:50.049Z,10.00
2023-02-28T11:40:22.225Z,10.20
2023-02-28T11:45:51.697Z,9.60
2023-02-28T11:48:32.233Z,10.00
2023-02-28T11:51:01.273Z,8.10
2023-02-28T11:53:41.831Z,10.10
2023-02-28T11:56:35.652Z,10.70
2023-02-28T11:59:13.800Z,10.70
2023-02-28T12:02:14.798Z,10.20
2023-02-28T12:05:00.357Z,8.50
2023-02-28T12:07:41.602Z,10.20
2023-02-28T12:10:25.228Z,9.00
2023-02-28T12:12:58.723Z,9.30
2023-02-28T12:15:43.349Z,9.60
2023-02-28T12:18:27.216Z,8.50
2023-02-28T12:21:22.468Z,9.60
2023-02-28T12:24:04.963Z,10.40
2023-02-28T12:26:41.713Z,8.00
2023-02-28T12:29:20.593Z,8.80
2023-02-28T12:32:01.976Z,8.50
2023-02-28T12:34:33.985Z,10.80
2023-02-28T12:37:09.481Z,7.30
2023-02-28T12:39:49.835Z,9.80
2023-02-28T12:42:32.377Z,8.80
2023-02-28T12:45:05.336Z,10.20
2023-02-28T12:47:31.445Z,8.50
2023-02-28T12:50:03.019Z,9.50
2023-02-28T12:53:00.792Z,9.10
2023-02-28T12:55:48.367Z,10.00
2023-02-28T12:58:36.810Z,6.90
2023-02-28T13:01:11.791Z,9.80
2023-02-28T13:03:40.407Z,9.00
2023-02-28T13:06:41.280Z,8.00
2023-02-28T13:09:25.623Z,9.00
2023-02-28T13:11:56.089Z,9.70
2023-02-28T13:14:33.961Z,9.20
2023-02-28T13:17:10.700Z,7.60
2023-02-28T13:19:44.732Z,9.90
2023-02-28T13:22:38.472Z,8.10
2023-02-28T13:25:22.904Z,9.00
2023-02-28T13:27:56.646Z,7.50
2023-02-28T13:30:57.560Z,9.70
2023-02-28T13:33:30.390Z,8.10
2023-02-28T13:36:17.759Z,7.10
2023-02-28T13:38:48.888Z,8.60
2023-02-28T13:41:30.264Z,8.20
2023-02-28T13:44:10.109Z,9.00
2023-02-28T13:46:48.347Z,8.30
2023-02-28T13:49:23.456Z,7.50
2023-02-28T13:51:52.481Z,8.80
2023-02-28T13:54:40.253Z,6.80
2023-02-28T13:57:32.338Z,6.60
2023-02-28T14:00:17.365Z,8.10
2023-02-28T14:02:55.495Z,7.20
2023-02-28T14:05:25.929Z,5.90
2023-02-28T14:07:57.330Z,7.80
2023-02-28T14:10:30.804Z,8.50
2023-02-28T14:12:59.222Z,8.80
2023-02-28T14:15:31.325Z,7.80
2023-02-28T14:17:59.844Z,7.30
2023-02-28T14:20:32.612Z,7.70
2023-02-28T14:23:15.146Z,9.30
2023-02-28T14:26:03.867Z,8.50
2023-02-28T14:28:55.900Z,9.10
2023-02-28T14:31:39.722Z,7.30
2023-02-28T14:34:26.049Z,6.90
2023-02-28T14:36:55.109Z,7.70
2023-02-28T14:39:24.615Z,7.70
2023-02-28T14:41:51.174Z,8.10
2023-02-28T14:44:26.836Z,7.30
2023-02-28T14:46:59.643Z,7.90
2023-02-28T14:49:31.866Z,7.70
2023-02-28T14:54:33.722Z,8.80
2023-02-28T14:56:59.885Z,7.10
2023-02-28T14:59:44.113Z,6.60
2023-02-28T15:02:24.551Z,7.10
2023-02-28T15:04:55.969Z,7.40
2023-02-28T15:07:28.876Z,4.50
2023-02-28T15:10:13.700Z,7.00
2023-02-28T15:12:41.763Z,7.30
2023-02-28T15:15:16.398Z,6.50
2023-02-28T15:17:46.340Z,7.40
2023-02-28T15:20:15.781Z,6.10
2023-02-28T15:22:42.509Z,6.30
2023-02-28T15:25:13.896Z,7.60
2023-02-28T15:27:49.915Z,7.10
2023-02-28T15:30:20.582Z,6.00
2023-02-28T15:33:03.244Z,7.00
2023-02-28T15:35:32.509Z,7.00
2023-02-28T15:38:16.122Z,7.50
2023-02-28T15:40:54.083Z,7.70
2023-02-28T15:43:26.349Z,6.50
2023-02-28T15:45:57.768Z,6.70
2023-02-28T15:48:28.355Z,5.70
2023-02-28T15:50:57.433Z,7.60
2023-02-28T15:53:32.079Z,9.70
2023-02-28T15:56:03.552Z,8.00
2023-02-28T15:58:29.978Z,9.80
2023-02-28T16:01:08.455Z,8.50
2023-02-28T16:03:45.668Z,10.50
2023-02-28T16:06:17.636Z,7.50
2023-02-28T16:08:44.835Z,6.60
2023-02-28T16:11:10.893Z,8.70
2023-02-28T16:13:37.650Z,11.70
2023-02-28T16:16:04.277Z,14.30
2023-02-28T16:18:31.162Z,11.10
2023-02-28T16:20:57.281Z,10.30
2023-02-28T16:23:26.445Z,10.00
2023-02-28T16:25:53.096Z,8.50
2023-02-28T16:28:24.649Z,7.00
2023-02-28T16:30:56.378Z,7.10
2023-02-28T16:33:22.618Z,6.20
2023-02-28T16:35:49.963Z,5.10
2023-02-28T16:38:16.166Z,2.60
2023-02-28T16:40:42.357Z,6.50
2023-02-28T16:43:17.792Z,5.70
2023-02-28T16:45:44.055Z,6.40
2023-02-28T16:48:15.951Z,8.00
2023-02-28T16:50:44.884Z,6.40
2023-02-28T16:53:11.144Z,5.30
2023-02-28T16:55:37.568Z,4.90
2023-02-28T16:58:04.239Z,4.90
2023-02-28T17:00:32.434Z,4.60
2023-02-28T17:03:03.743Z,4.60
2023-02-28T17:05:38.772Z,4.50
2023-02-28T17:08:05.851Z,4.30
2023-02-28T17:10:32.017Z,5.50
2023-02-28T17:13:06.112Z,4.70
2023-02-28T17:15:40.736Z,5.90
2023-02-28T17:18:20.003Z,3.40
2023-02-28T17:20:46.731Z,3.60
2023-02-28T17:23:12.924Z,3.40
2023-02-28T17:25:39.038Z,3.00
2023-02-28T17:28:05.525Z,3.40
2023-02-28T17:30:34.261Z,3.10
2023-02-28T17:33:00.388Z,3.60
2023-02-28T17:35:27.067Z,3.40
2023-02-28T17:37:53.313Z,3.10
2023-02-28T17:40:23.441Z,4.10
2023-02-28T17:42:49.675Z,2.20
2023-02-28T17:45:16.229Z,3.40
2023-02-28T17:47:46.050Z,2.50
2023-02-28T17:50:15.949Z,2.40
2023-02-28T17:52:42.300Z,1.80
2023-02-28T17:55:10.043Z,2.30
2023-02-28T17:57:36.126Z,1.50
2023-02-28T18:00:07.140Z,2.50
2023-02-28T18:02:37.619Z,3.00
2023-02-28T18:05:04.787Z,3.20
2023-02-28T18:07:31.090Z,1.70
2023-02-28T18:09:57.297Z,2.70
2023-02-28T18:12:23.646Z,1.90
2023-02-28T18:14:50.422Z,2.90
2023-02-28T18:17:16.630Z,3.10
2023-02-28T18:19:42.816Z,2.90
2023-02-28T18:22:09.188Z,1.90
2023-02-28T18:24:36.125Z,2.40
2023-02-28T18:27:02.543Z,1.80
2023-02-28T18:29:29.487Z,2.00
2023-02-28T18:31:56.246Z,1.60
2023-02-28T18:34:23.837Z,1.60
2023-02-28T18:36:51.670Z,1.70
2023-02-28T18:39:18.568Z,2.50
2023-02-28T18:41:44.899Z,1.80
2023-02-28T18:44:19.878Z,2.10
2023-02-28T18:46:47.399Z,2.40
2023-02-28T18:49:13.793Z,2.00
2023-02-28T18:51:44.446Z,2.10
2023-02-28T18:54:12.113Z,2.10
2023-02-28T18:56:38.289Z,2.30
2023-02-28T18:59:04.580Z,2.50
2023-02-28T19:01:31.941Z,2.20
2023-02-28T19:04:02.981Z,2.90
2023-02-28T19:06:30.762Z,2.40
2023-02-28T19:08:58.880Z,2.70
2023-02-28T19:11:25.501Z,2.70
2023-02-28T19:13:51.768Z,3.30
2023-02-28T19:16:19.689Z,3.90
2023-02-28T19:18:46.123Z,3.10
2023-02-28T19:21:14.493Z,4.00
2023-02-28T19:23:42.355Z,4.40
2023-02-28T19:26:14.133Z,4.80
2023-02-28T19:28:40.704Z,3.30
2023-02-28T19:31:19.412Z,3.70
2023-02-28T19:33:45.983Z,3.90
2023-02-28T19:36:13.636Z,4.90
2023-02-28T19:38:40.360Z,4.50
2023-02-28T19:41:09.231Z,3.30
2023-02-28T19:43:36.331Z,3.30
2023-02-28T19:46:03.345Z,3.30
2023-02-28T19:48:29.771Z,3.50
2023-02-28T19:51:08.667Z,4.30
2023-02-28T19:53:40.990Z,2.90
2023-02-28T19:56:08.201Z,1.60
2023-02-28T19:58:35.203Z,3.50
2023-02-28T20:01:13.037Z,3.50
2023-02-28T20:03:40.031Z,2.70
2023-02-28T20:06:26.583Z,1.90
2023-02-28T20:08:54.337Z,3.90
2023-02-28T20:11:20.823Z,3.10
2023-02-28T20:13:47.043Z,3.30
2023-02-28T20:16:14.556Z,3.40
2023-02-28T20:18:43.425Z,5.20
2023-02-28T20:21:11.327Z,3.90
2023-02-28T20:23:39.020Z,3.80
2023-02-28T20:26:05.731Z,4.60
2023-02-28T20:28:32.214Z,5.30
2023-02-28T20:30:59.898Z,4.40
2023-02-28T20:33:26.047Z,4.60
2023-02-28T20:35:59.519Z,4.80
2023-02-28T20:38:25.672Z,4.90
2023-02-28T20:40:57.673Z,4.70
2023-02-28T20:43:23.917Z,5.00
2023-02-28T20:45:54.637Z,5.20
2023-02-28T20:48:21.439Z,5.50
2023-02-28T20:50:55.353Z,5.90
2023-02-28T20:53:23.394Z,5.90
2023-02-28T20:56:03.286Z,3.70
2023-02-28T20:58:32.241Z,6.00
2023-02-28T21:01:11.996Z,5.60
2023-02-28T21:03:42.353Z,6.10
2023-02-28T21:06:09.891Z,5.80
2023-02-28T21:08:37.498Z,5.20
2023-02-28T21:11:09.395Z,4.90
2023-02-28T21:13:36.541Z,3.40
2023-02-28T21:16:10.069Z,4.70
2023-02-28T21:18:37.062Z,5.40
2023-02-28T21:21:04.493Z,4.70
2023-02-28T21:23:31.343Z,3.90
2023-02-28T21:26:05.749Z,3.80
2023-02-28T21:28:32.857Z,4.30
2023-02-28T21:31:07.436Z,3.70
2023-02-28T21:33:34.664Z,3.10
2023-02-28T21:36:06.416Z,2.20
2023-02-28T21:38:33.773Z,3.70
2023-02-28T21:41:14.535Z,2.80
2023-02-28T21:43:41.887Z,3.20
2023-02-28T21:46:14.579Z,4.30
2023-02-28T21:48:41.138Z,3.60
2023-02-28T21:51:11.391Z,3.80
2023-02-28T21:53:38.579Z,3.50
2023-02-28T21:56:07.524Z,3.80
2023-02-28T21:58:33.637Z,4.20
2023-02-28T22:01:11.782Z,3.50
2023-02-28T22:03:38.629Z,4.30
2023-02-28T22:06:22.357Z,3.80
2023-02-28T22:08:52.270Z,2.80
2023-02-28T22:11:19.483Z,4.00
2023-02-28T22:13:48.009Z,3.80
2023-02-28T22:16:19.596Z,3.50
2023-02-28T22:18:46.250Z,3.00
2023-02-28T22:21:13.929Z,3.90
2023-02-28T22:23:41.530Z,3.90
2023-02-28T22:26:10.416Z,3.30
2023-02-28T22:28:37.183Z,3.50
2023-02-28T22:31:33.604Z,3.40
2023-02-28T22:34:03.127Z,2.70
2023-02-28T22:36:30.648Z,3.60
2023-02-28T22:38:57.935Z,3.80
2023-02-28T22:41:24.284Z,3.10
2023-02-28T22:43:55.689Z,4.00
2023-02-28T22:46:23.178Z,2.60
2023-02-28T22:48:50.443Z,3.00
2023-02-28T22:51:22.663Z,2.90
2023-02-28T22:53:49.955Z,2.00
2023-02-28T22:56:17.935Z,2.90
2023-02-28T22:58:49.540Z,2.40
2023-02-28T23:01:16.573Z,1.50
2023-02-28T23:03:43.396Z,1.50
2023-02-28T23:06:25.282Z,2.40
2023-02-28T23:08:54.253Z,1.50
2023-02-28T23:11:26.327Z,1.90
2023-02-28T23:13:58.914Z,1.20
2023-02-28T23:16:29.634Z,1.40
2023-02-28T23:18:56.881Z,1.40
2023-02-28T23:21:23.657Z,1.40
2023-02-28T23:23:49.788Z,1.70
2023-02-28T23:26:15.946Z,1.00
2023-02-28T23:28:42.030Z,1.30
2023-02-28T23:31:08.265Z,1.60
2023-02-28T23:33:34.585Z,1.50
2023-02-28T23:36:09.198Z,1.00
2023-02-28T23:38:35.729Z,1.20
2023-02-28T23:41:01.819Z,1.60
2023-02-28T23:43:28.000Z,1.30
2023-02-28T23:45:55.708Z,1.10
2023-02-28T23:48:21.977Z,1.20
2023-02-28T23:50:48.122Z,1.40
2023-02-28T23:53:14.267Z,1.10
2023-02-28T23:55:51.198Z,1.30
2023-02-28T23:58:17.423Z,1.30
